UAL2278 KSAN-KSFO
Flight info
| Callsign | UAL2278 |
|---|---|
| Flight time | 0h 59m |
| Altitude | 32000 |
| Route | ECHHO2 IKAYE DCT RIZIN DCT SPLNT DCT STOKD DCT SERFR SERFR4 |
| Aircraft | A320/M-SDFGHIRWY/LB1 |
Departure
| Time | 2026-04-21 01:18 |
|---|---|
| Airport | San Diego International Airport (KSAN) |
Arrival
| Time | 2026-04-21 02:18 |
|---|---|
| Airport | San Francisco International Airport (KSFO) |
| Time | Latitude | Longitude | Altitude | Speed | Heading |
|---|---|---|---|---|---|
| 2026-04-21 00:35 | 32.73428 | -117.20478 | 23 ft | 0 kts | 122° |
| 2026-04-21 01:07 | 32.73438 | -117.20498 | 24 ft | 4 kts | 118° |
| 2026-04-21 01:07 | 32.73449 | -117.20527 | 26 ft | 4 kts | 102° |
| 2026-04-21 01:07 | 32.73449 | -117.20554 | 26 ft | 4 kts | 46° |
| 2026-04-21 01:07 | 32.73440 | -117.20560 | 26 ft | 1 kts | 4° |
| 2026-04-21 01:08 | 32.73438 | -117.20560 | 23 ft | 0 kts | 4° |
| 2026-04-21 01:11 | 32.73443 | -117.20560 | 24 ft | 2 kts | 4° |
| 2026-04-21 01:11 | 32.73462 | -117.20558 | 23 ft | 4 kts | 4° |
| 2026-04-21 01:11 | 32.73492 | -117.20541 | 23 ft | 6 kts | 45° |
| 2026-04-21 01:11 | 32.73520 | -117.20501 | 23 ft | 7 kts | 44° |
| 2026-04-21 01:12 | 32.73558 | -117.20451 | 22 ft | 9 kts | 51° |
| 2026-04-21 01:12 | 32.73596 | -117.20382 | 22 ft | 10 kts | 71° |
| 2026-04-21 01:12 | 32.73574 | -117.20299 | 22 ft | 11 kts | 108° |
| 2026-04-21 01:12 | 32.73551 | -117.20202 | 23 ft | 13 kts | 105° |
| 2026-04-21 01:13 | 32.73526 | -117.20092 | 24 ft | 15 kts | 107° |
| 2026-04-21 01:13 | 32.73495 | -117.19970 | 24 ft | 16 kts | 105° |
| 2026-04-21 01:13 | 32.73463 | -117.19834 | 23 ft | 18 kts | 105° |
| 2026-04-21 01:13 | 32.73427 | -117.19685 | 23 ft | 20 kts | 106° |
| 2026-04-21 01:14 | 32.73388 | -117.19522 | 25 ft | 21 kts | 106° |
| 2026-04-21 01:14 | 32.73343 | -117.19346 | 24 ft | 23 kts | 107° |
| 2026-04-21 01:14 | 32.73298 | -117.19153 | 24 ft | 25 kts | 104° |
| 2026-04-21 01:14 | 32.73247 | -117.18947 | 23 ft | 27 kts | 106° |
| 2026-04-21 01:15 | 32.73194 | -117.18727 | 14 ft | 29 kts | 106° |
| 2026-04-21 01:15 | 32.73138 | -117.18492 | 19 ft | 31 kts | 106° |
| 2026-04-21 01:15 | 32.73080 | -117.18255 | 17 ft | 23 kts | 106° |
| 2026-04-21 01:15 | 32.73038 | -117.18080 | 19 ft | 23 kts | 106° |
| 2026-04-21 01:16 | 32.72997 | -117.17911 | 18 ft | 22 kts | 106° |
| 2026-04-21 01:16 | 32.72961 | -117.17778 | 18 ft | 11 kts | 109° |
| 2026-04-21 01:16 | 32.72953 | -117.17685 | 17 ft | 12 kts | 73° |
| 2026-04-21 01:16 | 32.72984 | -117.17584 | 17 ft | 14 kts | 67° |
| 2026-04-21 01:17 | 32.73015 | -117.17558 | 18 ft | 4 kts | 297° |
| 2026-04-21 01:17 | 32.73028 | -117.17614 | 18 ft | 17 kts | 286° |
| 2026-04-21 01:17 | 32.73120 | -117.17996 | 19 ft | 80 kts | 286° |
| 2026-04-21 01:17 | 32.73325 | -117.18846 | 22 ft | 131 kts | 286° |
| 2026-04-21 01:18 | 32.73626 | -117.20032 | 178 ft | 157 kts | 287° |
| 2026-04-21 01:18 | 32.73935 | -117.21247 | 842 ft | 152 kts | 287° |
| 2026-04-21 01:18 | 32.74281 | -117.22419 | 1353 ft | 159 kts | 298° |
| 2026-04-21 01:18 | 32.74975 | -117.23574 | 1646 ft | 181 kts | 306° |
| 2026-04-21 01:19 | 32.75784 | -117.24822 | 1972 ft | 200 kts | 306° |
| 2026-04-21 01:19 | 32.76665 | -117.26249 | 2217 ft | 228 kts | 304° |
| 2026-04-21 01:19 | 32.77613 | -117.27843 | 2705 ft | 248 kts | 304° |
| 2026-04-21 01:19 | 32.78618 | -117.29561 | 3434 ft | 258 kts | 304° |
| 2026-04-21 01:20 | 32.79639 | -117.31338 | 4249 ft | 263 kts | 303° |
| 2026-04-21 01:20 | 32.80716 | -117.33132 | 5071 ft | 269 kts | 305° |
| 2026-04-21 01:20 | 32.81862 | -117.34921 | 5888 ft | 275 kts | 306° |
| 2026-04-21 01:20 | 32.83049 | -117.36729 | 6669 ft | 280 kts | 306° |
| 2026-04-21 01:21 | 32.84258 | -117.38565 | 7418 ft | 285 kts | 306° |
| 2026-04-21 01:21 | 32.85484 | -117.40435 | 8193 ft | 288 kts | 306° |
| 2026-04-21 01:21 | 32.86719 | -117.42333 | 8972 ft | 292 kts | 306° |
| 2026-04-21 01:21 | 32.87965 | -117.44258 | 9745 ft | 296 kts | 305° |
| 2026-04-21 01:22 | 32.89231 | -117.46217 | 10362 ft | 305 kts | 305° |
| 2026-04-21 01:22 | 32.90568 | -117.48300 | 10542 ft | 328 kts | 305° |
| 2026-04-21 01:22 | 32.91997 | -117.50533 | 10682 ft | 350 kts | 305° |
| 2026-04-21 01:22 | 32.93503 | -117.52884 | 11110 ft | 361 kts | 305° |
| 2026-04-21 01:23 | 32.95037 | -117.55270 | 11742 ft | 365 kts | 305° |
| 2026-04-21 01:23 | 32.96589 | -117.57676 | 12415 ft | 367 kts | 304° |
| 2026-04-21 01:23 | 32.98148 | -117.60097 | 13099 ft | 370 kts | 304° |
| 2026-04-21 01:23 | 32.99715 | -117.62539 | 13757 ft | 372 kts | 304° |
| 2026-04-21 01:24 | 33.01287 | -117.64997 | 14338 ft | 375 kts | 303° |
| 2026-04-21 01:24 | 33.02873 | -117.67483 | 14876 ft | 379 kts | 303° |
| 2026-04-21 01:24 | 33.04474 | -117.69996 | 15400 ft | 382 kts | 303° |
| 2026-04-21 01:24 | 33.06129 | -117.72500 | 15911 ft | 388 kts | 308° |
| 2026-04-21 01:25 | 33.08112 | -117.74735 | 16425 ft | 396 kts | 316° |
| 2026-04-21 01:25 | 33.10228 | -117.76869 | 16956 ft | 400 kts | 316° |
| 2026-04-21 01:25 | 33.12361 | -117.79028 | 17501 ft | 404 kts | 315° |
| 2026-04-21 01:25 | 33.14510 | -117.81209 | 18043 ft | 408 kts | 315° |
| 2026-04-21 01:26 | 33.16676 | -117.83418 | 18560 ft | 412 kts | 315° |
| 2026-04-21 01:26 | 33.18864 | -117.85652 | 19066 ft | 415 kts | 315° |
| 2026-04-21 01:26 | 33.21017 | -117.87963 | 19616 ft | 417 kts | 313° |
| 2026-04-21 01:26 | 33.23103 | -117.90375 | 20152 ft | 419 kts | 311° |
| 2026-04-21 01:27 | 33.25157 | -117.92859 | 20676 ft | 421 kts | 310° |
| 2026-04-21 01:27 | 33.27198 | -117.95376 | 21173 ft | 423 kts | 310° |
| 2026-04-21 01:27 | 33.28555 | -117.97051 | 21487 ft | 425 kts | 310° |
| 2026-04-21 01:27 | 33.31329 | -118.00441 | 21997 ft | 428 kts | 310° |
| 2026-04-21 01:28 | 33.32723 | -118.02122 | 22258 ft | 430 kts | 310° |
| 2026-04-21 01:28 | 33.34841 | -118.04657 | 22717 ft | 432 kts | 311° |
| 2026-04-21 01:28 | 33.36976 | -118.07201 | 23182 ft | 435 kts | 310° |
| 2026-04-21 01:28 | 33.39124 | -118.09765 | 23603 ft | 437 kts | 310° |
| 2026-04-21 01:29 | 33.41280 | -118.12344 | 23962 ft | 439 kts | 310° |
| 2026-04-21 01:29 | 33.44148 | -118.15781 | 24443 ft | 442 kts | 310° |
| 2026-04-21 01:29 | 33.45616 | -118.17541 | 24678 ft | 443 kts | 310° |
| 2026-04-21 01:29 | 33.47800 | -118.20160 | 25024 ft | 445 kts | 310° |
| 2026-04-21 01:30 | 33.49986 | -118.22789 | 25354 ft | 447 kts | 310° |
| 2026-04-21 01:30 | 33.52184 | -118.25435 | 25695 ft | 448 kts | 310° |
| 2026-04-21 01:30 | 33.54388 | -118.28094 | 26030 ft | 450 kts | 310° |
| 2026-04-21 01:30 | 33.56599 | -118.30761 | 26376 ft | 452 kts | 310° |
| 2026-04-21 01:31 | 33.58821 | -118.33442 | 26715 ft | 454 kts | 310° |
| 2026-04-21 01:31 | 33.61047 | -118.36130 | 27043 ft | 456 kts | 311° |
| 2026-04-21 01:31 | 33.63292 | -118.38837 | 27398 ft | 457 kts | 310° |
| 2026-04-21 01:31 | 33.65534 | -118.41540 | 27733 ft | 458 kts | 311° |
| 2026-04-21 01:32 | 33.67781 | -118.44252 | 28168 ft | 457 kts | 311° |
| 2026-04-21 01:32 | 33.70020 | -118.46957 | 28650 ft | 455 kts | 311° |
| 2026-04-21 01:32 | 33.72250 | -118.49653 | 29124 ft | 454 kts | 311° |
| 2026-04-21 01:32 | 33.74468 | -118.52338 | 29602 ft | 452 kts | 311° |
| 2026-04-21 01:33 | 33.76679 | -118.55020 | 30068 ft | 451 kts | 311° |
| 2026-04-21 01:33 | 33.78882 | -118.57698 | 30477 ft | 450 kts | 310° |
| 2026-04-21 01:33 | 33.81051 | -118.60337 | 30847 ft | 449 kts | 310° |
| 2026-04-21 01:33 | 33.83241 | -118.63005 | 31226 ft | 449 kts | 310° |
| 2026-04-21 01:34 | 33.85430 | -118.65678 | 31603 ft | 448 kts | 310° |
| 2026-04-21 01:34 | 33.87616 | -118.68348 | 31957 ft | 447 kts | 309° |
| 2026-04-21 01:34 | 33.92014 | -118.73718 | 32045 ft | 456 kts | 309° |
| 2026-04-21 01:35 | 33.96483 | -118.79173 | 32043 ft | 459 kts | 309° |
| 2026-04-21 01:35 | 34.00978 | -118.84658 | 32038 ft | 459 kts | 309° |
| 2026-04-21 01:36 | 34.05458 | -118.90144 | 32050 ft | 459 kts | 309° |
| 2026-04-21 01:36 | 34.09929 | -118.95643 | 32055 ft | 459 kts | 309° |
| 2026-04-21 01:37 | 34.14294 | -119.01251 | 32062 ft | 454 kts | 302° |
| 2026-04-21 01:37 | 34.17701 | -119.07584 | 32044 ft | 449 kts | 296° |
| 2026-04-21 01:38 | 34.20996 | -119.13991 | 32036 ft | 449 kts | 296° |
| 2026-04-21 01:38 | 34.24291 | -119.20399 | 32036 ft | 449 kts | 296° |
| 2026-04-21 01:39 | 34.27593 | -119.26814 | 32057 ft | 449 kts | 296° |
| 2026-04-21 01:39 | 34.30886 | -119.33229 | 32056 ft | 449 kts | 296° |
| 2026-04-21 01:40 | 34.34172 | -119.39644 | 32048 ft | 448 kts | 296° |
| 2026-04-21 01:40 | 34.37450 | -119.46068 | 32048 ft | 448 kts | 295° |
| 2026-04-21 01:41 | 34.40778 | -119.52458 | 32060 ft | 452 kts | 300° |
| 2026-04-21 01:41 | 34.45067 | -119.58117 | 32059 ft | 459 kts | 308° |
| 2026-04-21 01:42 | 34.49561 | -119.63620 | 32047 ft | 458 kts | 308° |
| 2026-04-21 01:42 | 34.54034 | -119.69133 | 32031 ft | 458 kts | 308° |
| 2026-04-21 01:43 | 34.58496 | -119.74647 | 32029 ft | 458 kts | 308° |
| 2026-04-21 01:43 | 34.62968 | -119.80162 | 32011 ft | 458 kts | 308° |
| 2026-04-21 01:44 | 34.67431 | -119.85678 | 32033 ft | 458 kts | 308° |
| 2026-04-21 01:44 | 34.71886 | -119.91197 | 32030 ft | 457 kts | 308° |
| 2026-04-21 01:45 | 34.76330 | -119.96718 | 32038 ft | 457 kts | 308° |
| 2026-04-21 01:45 | 34.80765 | -120.02249 | 32029 ft | 457 kts | 308° |
| 2026-04-21 01:46 | 34.85176 | -120.07747 | 32031 ft | 457 kts | 308° |
| 2026-04-21 01:46 | 34.89643 | -120.13319 | 32040 ft | 456 kts | 308° |
| 2026-04-21 01:47 | 34.94039 | -120.18808 | 32029 ft | 455 kts | 308° |
| 2026-04-21 01:47 | 34.98465 | -120.24340 | 32025 ft | 455 kts | 308° |
| 2026-04-21 01:48 | 35.02909 | -120.29912 | 32022 ft | 455 kts | 308° |
| 2026-04-21 01:48 | 35.07285 | -120.35417 | 32035 ft | 455 kts | 308° |
| 2026-04-21 01:49 | 35.11789 | -120.40873 | 32037 ft | 457 kts | 311° |
| 2026-04-21 01:49 | 35.16510 | -120.46093 | 32048 ft | 458 kts | 313° |
| 2026-04-21 01:50 | 35.21267 | -120.51285 | 32054 ft | 458 kts | 312° |
| 2026-04-21 01:50 | 35.25975 | -120.56531 | 32057 ft | 458 kts | 311° |
| 2026-04-21 01:51 | 35.30660 | -120.61821 | 32048 ft | 458 kts | 311° |
| 2026-04-21 01:51 | 35.35344 | -120.67119 | 32041 ft | 458 kts | 311° |
| 2026-04-21 01:52 | 35.42381 | -120.75067 | 32042 ft | 459 kts | 311° |
| 2026-04-21 01:53 | 35.47081 | -120.80373 | 32036 ft | 459 kts | 311° |
| 2026-04-21 01:53 | 35.52120 | -120.85301 | 32034 ft | 465 kts | 317° |
| 2026-04-21 01:54 | 35.57277 | -120.90088 | 32055 ft | 465 kts | 316° |
| 2026-04-21 01:54 | 35.62431 | -120.94885 | 32038 ft | 465 kts | 316° |
| 2026-04-21 01:55 | 35.67595 | -120.99690 | 32031 ft | 466 kts | 316° |
| 2026-04-21 01:55 | 35.72765 | -121.04513 | 32018 ft | 466 kts | 316° |
| 2026-04-21 01:56 | 35.77937 | -121.09346 | 32015 ft | 467 kts | 316° |
| 2026-04-21 01:56 | 35.83113 | -121.14180 | 32008 ft | 467 kts | 316° |
| 2026-04-21 01:57 | 35.88283 | -121.19022 | 31999 ft | 467 kts | 316° |
| 2026-04-21 01:57 | 35.93461 | -121.23891 | 32008 ft | 468 kts | 316° |
| 2026-04-21 01:58 | 35.98659 | -121.28779 | 31990 ft | 470 kts | 315° |
| 2026-04-21 01:58 | 36.03865 | -121.33685 | 31980 ft | 471 kts | 315° |
| 2026-04-21 01:59 | 36.09251 | -121.38369 | 31985 ft | 477 kts | 321° |
| 2026-04-21 01:59 | 36.14887 | -121.42752 | 31972 ft | 479 kts | 321° |
| 2026-04-21 02:00 | 36.20529 | -121.47149 | 31008 ft | 484 kts | 321° |
| 2026-04-21 02:00 | 36.23408 | -121.49402 | 29773 ft | 493 kts | 321° |
| 2026-04-21 02:00 | 36.26321 | -121.51680 | 28669 ft | 495 kts | 321° |
| 2026-04-21 02:00 | 36.29245 | -121.53965 | 27585 ft | 498 kts | 321° |
| 2026-04-21 02:01 | 36.32151 | -121.56234 | 27002 ft | 489 kts | 321° |
| 2026-04-21 02:01 | 36.35007 | -121.58468 | 26246 ft | 484 kts | 321° |
| 2026-04-21 02:01 | 36.37833 | -121.60685 | 25521 ft | 478 kts | 321° |
| 2026-04-21 02:01 | 36.40631 | -121.62888 | 24803 ft | 476 kts | 321° |
| 2026-04-21 02:02 | 36.43424 | -121.65087 | 24097 ft | 473 kts | 321° |
| 2026-04-21 02:02 | 36.46182 | -121.67258 | 23767 ft | 462 kts | 321° |
| 2026-04-21 02:02 | 36.48846 | -121.69347 | 23650 ft | 446 kts | 320° |
| 2026-04-21 02:02 | 36.51435 | -121.71378 | 23475 ft | 433 kts | 320° |
| 2026-04-21 02:03 | 36.53965 | -121.73375 | 23032 ft | 429 kts | 320° |
| 2026-04-21 02:03 | 36.56468 | -121.75366 | 22480 ft | 426 kts | 320° |
| 2026-04-21 02:03 | 36.58962 | -121.77350 | 22009 ft | 424 kts | 320° |
| 2026-04-21 02:03 | 36.61440 | -121.79318 | 21533 ft | 422 kts | 320° |
| 2026-04-21 02:04 | 36.63913 | -121.81283 | 21066 ft | 421 kts | 320° |
| 2026-04-21 02:04 | 36.66376 | -121.83243 | 20603 ft | 418 kts | 320° |
| 2026-04-21 02:04 | 36.68808 | -121.85175 | 19798 ft | 412 kts | 321° |
| 2026-04-21 02:04 | 36.71216 | -121.87084 | 18954 ft | 409 kts | 321° |
| 2026-04-21 02:05 | 36.73686 | -121.88838 | 18120 ft | 410 kts | 330° |
| 2026-04-21 02:05 | 36.76371 | -121.90028 | 17301 ft | 409 kts | 343° |
| 2026-04-21 02:05 | 36.79129 | -121.90785 | 16301 ft | 406 kts | 345° |
| 2026-04-21 02:05 | 36.81920 | -121.91555 | 14936 ft | 416 kts | 345° |
| 2026-04-21 02:06 | 36.84693 | -121.92324 | 14500 ft | 398 kts | 344° |
| 2026-04-21 02:06 | 36.87354 | -121.93066 | 13884 ft | 387 kts | 344° |
| 2026-04-21 02:06 | 36.89954 | -121.93796 | 13105 ft | 381 kts | 343° |
| 2026-04-21 02:06 | 36.92521 | -121.94523 | 12339 ft | 375 kts | 343° |
| 2026-04-21 02:07 | 36.95048 | -121.95246 | 11581 ft | 369 kts | 342° |
| 2026-04-21 02:07 | 36.97512 | -121.96060 | 10843 ft | 363 kts | 339° |
| 2026-04-21 02:07 | 36.99907 | -121.96968 | 10147 ft | 357 kts | 337° |
| 2026-04-21 02:07 | 37.02237 | -121.97911 | 9771 ft | 342 kts | 336° |
| 2026-04-21 02:08 | 37.04433 | -121.98814 | 9499 ft | 324 kts | 337° |
| 2026-04-21 02:08 | 37.06555 | -121.99680 | 8942 ft | 318 kts | 337° |
| 2026-04-21 02:08 | 37.08638 | -122.00519 | 8449 ft | 312 kts | 338° |
| 2026-04-21 02:08 | 37.10712 | -122.01343 | 8182 ft | 311 kts | 338° |
| 2026-04-21 02:09 | 37.12764 | -122.02154 | 8054 ft | 310 kts | 338° |
| 2026-04-21 02:09 | 37.14819 | -122.02962 | 7937 ft | 309 kts | 338° |
| 2026-04-21 02:09 | 37.16849 | -122.03757 | 8002 ft | 311 kts | 338° |
| 2026-04-21 02:09 | 37.18895 | -122.04557 | 7997 ft | 303 kts | 338° |
| 2026-04-21 02:10 | 37.20924 | -122.05352 | 8000 ft | 301 kts | 337° |
| 2026-04-21 02:10 | 37.22911 | -122.06133 | 8000 ft | 299 kts | 337° |
| 2026-04-21 02:10 | 37.24900 | -122.06917 | 7993 ft | 300 kts | 337° |
| 2026-04-21 02:10 | 37.26892 | -122.07702 | 8002 ft | 298 kts | 337° |
| 2026-04-21 02:11 | 37.28849 | -122.08469 | 7819 ft | 302 kts | 338° |
| 2026-04-21 02:11 | 37.30214 | -122.09006 | 7536 ft | 305 kts | 338° |
| 2026-04-21 02:11 | 37.32212 | -122.09790 | 7368 ft | 299 kts | 339° |
| 2026-04-21 02:11 | 37.34190 | -122.10566 | 7067 ft | 297 kts | 338° |
| 2026-04-21 02:12 | 37.36786 | -122.11589 | 6675 ft | 293 kts | 338° |
| 2026-04-21 02:12 | 37.38730 | -122.12334 | 6378 ft | 291 kts | 340° |
| 2026-04-21 02:12 | 37.40680 | -122.13021 | 6066 ft | 290 kts | 341° |
| 2026-04-21 02:12 | 37.42625 | -122.13679 | 5740 ft | 290 kts | 342° |
| 2026-04-21 02:13 | 37.43936 | -122.14118 | 5543 ft | 288 kts | 341° |
| 2026-04-21 02:13 | 37.46565 | -122.15007 | 4608 ft | 306 kts | 342° |
| 2026-04-21 02:13 | 37.47981 | -122.15491 | 4035 ft | 317 kts | 342° |
| 2026-04-21 02:13 | 37.50118 | -122.16220 | 3365 ft | 314 kts | 342° |
| 2026-04-21 02:14 | 37.52142 | -122.16968 | 3188 ft | 290 kts | 332° |
| 2026-04-21 02:14 | 37.53669 | -122.18324 | 3010 ft | 261 kts | 306° |
| 2026-04-21 02:14 | 37.54591 | -122.20176 | 2683 ft | 242 kts | 292° |
| 2026-04-21 02:14 | 37.55369 | -122.22034 | 2387 ft | 231 kts | 292° |
| 2026-04-21 02:15 | 37.56099 | -122.23775 | 2094 ft | 223 kts | 291° |
| 2026-04-21 02:15 | 37.56803 | -122.25441 | 1815 ft | 207 kts | 292° |
| 2026-04-21 02:15 | 37.57462 | -122.27009 | 1554 ft | 199 kts | 292° |
| 2026-04-21 02:15 | 37.58081 | -122.28476 | 1337 ft | 180 kts | 292° |
| 2026-04-21 02:16 | 37.58643 | -122.29810 | 1079 ft | 164 kts | 292° |
| 2026-04-21 02:16 | 37.59157 | -122.31029 | 877 ft | 152 kts | 292° |
| 2026-04-21 02:16 | 37.59646 | -122.32173 | 681 ft | 146 kts | 294° |
| 2026-04-21 02:16 | 37.60105 | -122.33293 | 485 ft | 140 kts | 295° |
| 2026-04-21 02:17 | 37.60561 | -122.34402 | 294 ft | 143 kts | 298° |
| 2026-04-21 02:17 | 37.61016 | -122.35471 | 151 ft | 136 kts | 297° |
| 2026-04-21 02:17 | 37.61456 | -122.36512 | 30 ft | 125 kts | 306° |
| 2026-04-21 02:17 | 37.61785 | -122.37303 | 23 ft | 78 kts | 296° |
| 2026-04-21 02:18 | 37.61958 | -122.37713 | 22 ft | 28 kts | 298° |
| 2026-04-21 02:18 | 37.61991 | -122.37892 | 22 ft | 19 kts | 244° |
| 2026-04-21 02:18 | 37.61910 | -122.37992 | 22 ft | 13 kts | 202° |
| 2026-04-21 02:18 | 37.61825 | -122.37976 | 22 ft | 13 kts | 142° |
| 2026-04-21 02:19 | 37.61750 | -122.37946 | 22 ft | 12 kts | 174° |
| 2026-04-21 02:19 | 37.61668 | -122.37962 | 23 ft | 12 kts | 203° |
| 2026-04-21 02:19 | 37.61588 | -122.38015 | 22 ft | 14 kts | 209° |
| 2026-04-21 02:19 | 37.61500 | -122.38074 | 24 ft | 15 kts | 207° |
| 2026-04-21 02:20 | 37.61424 | -122.38123 | 23 ft | 7 kts | 209° |
| 2026-04-21 02:20 | 37.61429 | -122.38160 | 22 ft | 5 kts | 308° |
| 2026-04-21 02:20 | 37.61450 | -122.38189 | 22 ft | 2 kts | 311° |
| 2026-04-21 02:20 | 37.61455 | -122.38197 | 22 ft | 0 kts | 311° |